Time;durP1;ratioP1;P1;durP2;ratioP2;P2;SDS_P1;SDS_P2;PMS_P1;PMS_P2;Temp;Humidity;BMP_temperature;BMP_pressure;BME280_temperature;BME280_humidity;BME280_pressure;Samples;Min_cycle;Max_cycle;Signal;HPM_P1;HPM_P2
2022/03/08 00:01:15;;;;;;;;;;;;;;;20.42;35.08;100943.73;104461;1308;72587;-86
2022/03/08 00:03:56;;;;;;;;;;;;;;;20.42;35.02;100943.55;104630;1309;61407;-81
2022/03/08 00:06:50;;;;;;;;;;;;;;;20.42;35.04;100942.48;104618;1307;61281;-82
2022/03/08 00:09:20;;;;;;;;;;;;;;;20.42;35.09;100940.51;104630;1309;61282;-83
2022/03/08 00:12:08;;;;;;;;;;;;;;;20.42;35.10;100942.12;104517;1309;73215;-83
2022/03/08 00:14:52;;;;;;;;;;;;;;;20.42;35.16;100942.12;104606;1309;76846;-86
2022/03/08 00:17:17;;;;;;;;;;;;;;;20.42;35.05;100941.58;104638;1309;61152;-81
2022/03/08 00:19:47;;;;;;;;;;;;;;;20.42;35.04;100940.53;104530;1307;61869;-82
2022/03/08 00:23:07;;;;;;;;;;;;;;;20.42;35.02;100937.46;104609;1308;71497;-79
2022/03/08 00:25:53;;;;;;;;;;;;;;;20.43;34.99;100939.40;104275;1311;74976;-79
2022/03/08 00:28:39;;;;;;;;;;;;;;;20.42;35.17;100939.60;104527;1307;61250;-81
2022/03/08 00:31:28;;;;;;;;;;;;;;;20.42;35.04;100936.38;104289;1309;61266;-84
2022/03/08 00:34:07;;;;;;;;;;;;;;;;;;;;;
2022/03/08 00:36:40;;;;;;;;;;;;;;;20.43;35.08;100935.65;104531;1309;75389;-78
2022/03/08 00:39:18;;;;;;;;;;;;;;;20.43;35.28;100937.44;104630;1309;61139;-83
2022/03/08 00:41:44;;;;;;;;;;;;;;;20.43;35.19;100934.73;104526;1309;61139;-83
2022/03/08 00:44:38;;;;;;;;;;;;;;;20.42;35.28;100933.89;104500;1309;72929;-83
2022/03/08 00:47:07;;;;;;;;;;;;;;;20.42;35.09;100932.80;104597;1308;74813;-78
2022/03/08 00:49:48;;;;;;;;;;;;;;;;;;;;;
2022/03/08 00:52:40;;;;;;;;;;;;;;;20.42;35.19;100928.52;104623;1309;61295;-81
2022/03/08 00:55:30;;;;;;;;;;;;;;;20.42;35.19;100930.30;104429;1309;72702;-84
2022/03/08 00:58:15;;;;;;;;;;;;;;;20.42;35.20;100934.77;104610;1309;74784;-84
2022/03/08 01:01:03;;;;;;;;;;;;;;;20.42;35.15;100943.89;104605;1308;61327;-82
2022/03/08 01:03:40;;;;;;;;;;;;;;;20.42;35.19;100947.11;104531;1309;61163;-82
2022/03/08 01:06:42;;;;;;;;;;;;;;;;;;;;;
2022/03/08 01:09:15;;;;;;;;;;;;;;;20.42;35.29;100949.26;104547;1309;76367;-85
2022/03/08 01:12:06;;;;;;;;;;;;;;;20.43;35.30;100947.81;104633;1309;61152;-82
2022/03/08 01:14:37;;;;;;;;;;;;;;;20.42;35.17;100953.17;104652;1309;61323;-84
2022/03/08 01:17:23;;;;;;;;;;;;;;;20.42;35.25;100949.23;104623;1308;73977;-82
2022/03/08 01:19:58;;;;;;;;;;;;;;;20.42;35.11;100947.66;104463;1310;74800;-82
2022/03/08 01:23:02;;;;;;;;;;;;;;;;;;;;;
2022/03/08 01:25:45;;;;;;;;;;;;;;;20.41;35.11;100953.42;104537;1307;61578;-84
2022/03/08 01:28:34;;;;;;;;;;;;;;;20.42;35.19;100954.98;104554;1308;73807;-84
2022/03/08 01:31:13;;;;;;;;;;;;;;;20.41;35.18;100952.89;104542;1309;76068;-81
2022/03/08 01:34:01;;;;;;;;;;;;;;;;;;;;;
2022/03/08 01:36:39;;;;;;;;;;;;;;;20.42;35.14;100958.57;104365;1308;61617;-88
2022/03/08 01:39:25;;;;;;;;;;;;;;;;;;;;;
2022/03/08 01:42:06;;;;;;;;;;;;;;;20.41;35.31;100958.98;104506;1309;76322;-81
2022/03/08 01:44:52;;;;;;;;;;;;;;;20.41;35.30;100955.77;104615;1309;61180;-82
2022/03/08 01:47:25;;;;;;;;;;;;;;;20.41;35.20;100960.24;104641;1309;61467;-82
2022/03/08 01:49:56;;;;;;;;;;;;;;;20.41;35.11;100959.70;104507;1308;72784;-82
2022/03/08 01:52:34;;;;;;;;;;;;;;;;;;;;;
2022/03/08 01:55:15;;;;;;;;;;;;;;;20.40;35.17;100957.06;104519;1309;59830;-83
2022/03/08 01:57:49;;;;;;;;;;;;;;;20.40;35.04;100960.65;104628;1309;61826;-83
2022/03/08 02:00:26;;;;;;;;;;;;;;;;;;;;;
2022/03/08 02:02:52;;;;;;;;;;;;;;;20.40;35.15;100960.66;104542;1309;75777;-82
2022/03/08 02:05:43;;;;;;;;;;;;;;;20.40;35.25;100959.23;104308;1312;61320;-82
2022/03/08 02:08:18;;;;;;;;;;;;;;;20.40;35.16;100959.77;104321;1311;61327;-83
2022/03/08 02:11:12;;;;;;;;;;;;;;;20.39;35.21;100959.27;104303;1312;74266;-81
2022/03/08 02:13:51;;;;;;;;;;;;;;;;;;;;;
2022/03/08 02:16:25;;;;;;;;;;;;;;;20.39;35.20;100958.20;104343;1312;61371;-81
2022/03/08 02:19:07;;;;;;;;;;;;;;;20.39;35.12;100959.80;104340;1312;61416;-83
2022/03/08 02:22:03;;;;;;;;;;;;;;;20.40;35.31;100959.60;104316;1312;71769;-85
2022/03/08 02:24:32;;;;;;;;;;;;;;;20.39;35.10;100960.73;104310;1312;75672;-83
2022/03/08 02:27:10;;;;;;;;;;;;;;;20.39;35.13;100956.97;104227;1312;61168;-82
2022/03/08 02:29:50;;;;;;;;;;;;;;;20.39;35.11;100956.44;104300;1312;62570;-82
2022/03/08 02:32:42;;;;;;;;;;;;;;;20.39;35.17;100963.06;104316;1312;73309;-82
2022/03/08 02:35:12;;;;;;;;;;;;;;;20.39;35.32;100959.32;104300;1312;74794;-84
2022/03/08 02:37:38;;;;;;;;;;;;;;;20.38;35.08;100958.45;104266;1312;61378;-85
2022/03/08 02:40:08;;;;;;;;;;;;;;;20.39;35.11;100959.67;104341;1312;61381;-83
2022/03/08 02:42:34;;;;;;;;;;;;;;;20.39;35.18;100960.08;104345;1309;61160;-84
2022/03/08 02:45:15;;;;;;;;;;;;;;;20.38;35.28;100963.30;104449;1309;74194;-81
2022/03/08 02:47:49;;;;;;;;;;;;;;;20.38;35.07;100968.48;104655;1309;61295;-84
2022/03/08 02:50:55;;;;;;;;;;;;;;;20.37;35.17;100964.94;104608;1309;61351;-83
2022/03/08 02:53:24;;;;;;;;;;;;;;;20.37;35.14;100967.09;104578;1306;73955;-83
2022/03/08 02:56:39;;;;;;;;;;;;;;;20.37;35.18;100972.64;104599;1309;73465;-80
2022/03/08 02:59:23;;;;;;;;;;;;;;;;;;;;;
2022/03/08 03:02:09;;;;;;;;;;;;;;;;;;;;;
2022/03/08 03:04:46;;;;;;;;;;;;;;;20.38;35.27;100973.16;104528;1307;74378;-82
2022/03/08 03:07:52;;;;;;;;;;;;;;;20.37;35.20;100974.78;104616;1309;76123;-83
2022/03/08 03:10:43;;;;;;;;;;;;;;;20.38;35.17;100972.79;104521;1308;61151;-81
2022/03/08 03:13:22;;;;;;;;;;;;;;;20.37;35.16;100976.40;104512;1309;61135;-82
2022/03/08 03:16:07;;;;;;;;;;;;;;;;;;;;;
2022/03/08 03:19:00;;;;;;;;;;;;;;;20.38;35.39;100981.55;104525;1308;74725;-85
2022/03/08 03:21:33;;;;;;;;;;;;;;;20.38;35.09;100980.83;104519;1309;61279;-82
2022/03/08 03:24:09;;;;;;;;;;;;;;;20.38;35.15;100980.85;104500;1309;61308;-82
2022/03/08 03:26:54;;;;;;;;;;;;;;;20.37;35.12;100983.37;104475;1307;73777;-83
2022/03/08 03:29:50;;;;;;;;;;;;;;;20.37;35.17;100981.05;104500;1309;73538;-83
2022/03/08 03:32:34;;;;;;;;;;;;;;;20.37;35.13;100984.43;104503;1309;61366;-81
2022/03/08 03:35:13;;;;;;;;;;;;;;;20.38;35.20;100985.33;104444;1309;62182;-85
2022/03/08 03:38:01;;;;;;;;;;;;;;;20.37;35.04;100988.55;104598;1309;73796;-86
2022/03/08 03:40:35;;;;;;;;;;;;;;;20.37;35.20;100991.77;104631;1309;75173;-83
2022/03/08 03:43:01;;;;;;;;;;;;;;;20.37;35.12;100989.45;104526;1309;61427;-83
2022/03/08 03:45:45;;;;;;;;;;;;;;;20.37;35.27;100996.96;104516;1309;61476;-81
2022/03/08 03:48:40;;;;;;;;;;;;;;;20.37;35.03;100995.91;104502;1309;72800;-81
2022/03/08 03:51:16;;;;;;;;;;;;;;;20.37;35.29;100994.32;104610;1309;74658;-83
2022/03/08 03:53:54;;;;;;;;;;;;;;;20.37;35.08;100994.30;104473;1309;61190;-83
2022/03/08 03:56:40;;;;;;;;;;;;;;;20.37;35.13;100993.77;104527;1309;61154;-82
2022/03/08 03:59:14;;;;;;;;;;;;;;;20.36;35.14;100991.83;104617;1308;73222;-82
2022/03/08 04:02:00;;;;;;;;;;;;;;;20.36;34.97;100993.61;104433;1309;75694;-83
2022/03/08 04:04:36;;;;;;;;;;;;;;;20.36;35.24;100997.20;104644;1309;61172;-83
2022/03/08 04:07:05;;;;;;;;;;;;;;;20.36;34.99;100998.98;104503;1309;61756;-79
2022/03/08 04:09:49;;;;;;;;;;;;;;;20.36;35.10;101002.56;104522;1309;73125;-82
2022/03/08 04:13:07;;;;;;;;;;;;;;;;;;;;;
2022/03/08 04:15:33;;;;;;;;;;;;;;;20.35;35.11;101009.81;104608;1309;61145;-84
2022/03/08 04:18:07;;;;;;;;;;;;;;;20.34;35.19;101015.42;104473;1309;61238;-82
2022/03/08 04:21:04;;;;;;;;;;;;;;;20.32;34.95;101020.38;104500;1309;74420;-82
2022/03/08 04:24:00;;;;;;;;;;;;;;;;;;;;;
2022/03/08 04:26:35;;;;;;;;;;;;;;;20.26;34.62;101018.41;104549;1309;61187;-82
2022/03/08 04:29:37;;;;;;;;;;;;;;;20.24;34.46;101022.68;104590;1309;61378;-83
2022/03/08 04:32:54;;;;;;;;;;;;;;;;;;;;;
2022/03/08 04:35:48;;;;;;;;;;;;;;;20.16;34.44;101020.66;103421;1319;75818;-85
2022/03/08 04:38:23;;;;;;;;;;;;;;;20.15;34.21;101019.70;103311;1320;61495;-85
2022/03/08 04:41:09;;;;;;;;;;;;;;;20.12;34.04;101020.40;103342;1318;61311;-84
2022/03/08 04:43:58;;;;;;;;;;;;;;;20.06;34.17;101025.73;103428;1320;74019;-83
2022/03/08 04:46:44;;;;;;;;;;;;;;;20.00;34.21;101024.16;103263;1320;75936;-85
2022/03/08 04:49:15;;;;;;;;;;;;;;;19.93;34.29;101032.63;103405;1320;61318;-81
2022/03/08 04:51:52;;;;;;;;;;;;;;;19.87;34.31;101034.28;103399;1320;61969;-83
2022/03/08 04:54:44;;;;;;;;;;;;;;;19.80;34.27;101034.55;103308;1320;74379;-83
2022/03/08 04:57:21;;;;;;;;;;;;;;;19.74;34.40;101041.83;103203;1322;74935;-83
2022/03/08 04:59:57;;;;;;;;;;;;;;;19.69;34.60;101041.77;103335;1320;61177;-84
2022/03/08 05:02:52;;;;;;;;;;;;;;;19.61;34.59;101042.81;103252;1321;61600;-85
2022/03/08 05:05:38;;;;;;;;;;;;;;;19.52;34.36;101043.38;103308;1323;73254;-86
2022/03/08 05:08:23;;;;;;;;;;;;;;;19.45;34.06;101044.84;103396;1320;76156;-79
2022/03/08 05:11:04;;;;;;;;;;;;;;;19.39;33.83;101043.21;103949;1317;60733;-86
2022/03/08 05:13:33;;;;;;;;;;;;;;;19.36;33.81;101046.09;104245;1308;61203;-83
2022/03/08 05:16:24;;;;;;;;;;;;;;;19.32;33.75;101048.67;104421;1309;73016;-82
2022/03/08 05:19:01;;;;;;;;;;;;;;;19.19;33.49;101050.13;104482;1308;74718;-80
2022/03/08 05:21:28;;;;;;;;;;;;;;;19.16;33.51;101047.13;104424;1307;61363;-82
2022/03/08 05:24:13;;;;;;;;;;;;;;;19.02;33.11;101050.97;104412;1308;61267;-83
2022/03/08 05:26:51;;;;;;;;;;;;;;;;;;;;;
2022/03/08 05:29:17;;;;;;;;;;;;;;;18.84;32.95;101059.63;104082;1308;74540;-81
2022/03/08 05:32:00;;;;;;;;;;;;;;;18.83;32.80;101062.34;104370;1308;61148;-80
2022/03/08 05:34:26;;;;;;;;;;;;;;;18.84;32.80;101062.32;104158;1308;61426;-80
2022/03/08 05:37:01;;;;;;;;;;;;;;;18.85;32.57;101063.28;104039;1308;61323;-82
2022/03/08 05:39:26;;;;;;;;;;;;;;;18.88;32.40;101061.21;104322;1309;74910;-80
2022/03/08 05:41:52;;;;;;;;;;;;;;;18.91;32.30;101063.70;104054;1309;61460;-81
2022/03/08 05:44:21;;;;;;;;;;;;;;;18.92;32.09;101064.32;103932;1309;61361;-81
2022/03/08 05:46:58;;;;;;;;;;;;;;;18.93;31.88;101067.86;104078;1306;72494;-81
2022/03/08 05:49:24;;;;;;;;;;;;;;;18.91;31.87;101074.76;103875;1308;74933;-79
2022/03/08 05:51:49;;;;;;;;;;;;;;;18.88;31.62;101075.48;104008;1308;61407;-81
2022/03/08 05:54:14;;;;;;;;;;;;;;;18.86;31.59;101079.14;103838;1307;61323;-79
2022/03/08 05:56:46;;;;;;;;;;;;;;;18.84;31.57;101082.81;103802;1309;61238;-80
2022/03/08 05:59:11;;;;;;;;;;;;;;;18.82;31.51;101086.14;103872;1309;76109;-80
2022/03/08 06:01:37;;;;;;;;;;;;;;;18.80;31.48;101094.31;103809;1308;61339;-81
2022/03/08 06:04:02;;;;;;;;;;;;;;;18.71;31.36;101097.45;103565;1309;61329;-80
2022/03/08 06:06:28;;;;;;;;;;;;;;;18.63;31.41;101098.06;103822;1308;62684;-79
2022/03/08 06:08:54;;;;;;;;;;;;;;;18.62;31.63;101099.39;103542;1311;61304;-79
2022/03/08 06:11:30;;;;;;;;;;;;;;;18.66;31.59;101102.75;103750;1309;75970;-80
2022/03/08 06:13:59;;;;;;;;;;;;;;;18.68;31.54;101102.59;103839;1307;61358;-79
2022/03/08 06:16:26;;;;;;;;;;;;;;;18.72;31.40;101102.41;103961;1308;61161;-80
2022/03/08 06:18:58;;;;;;;;;;;;;;;18.78;31.29;101102.43;103757;1309;71667;-79
2022/03/08 06:21:24;;;;;;;;;;;;;;;18.85;31.30;101105.24;104377;1309;74758;-80
2022/03/08 06:23:53;;;;;;;;;;;;;;;18.93;31.34;101108.01;103798;1308;61390;-79
2022/03/08 06:26:19;;;;;;;;;;;;;;;19.02;31.31;101108.75;103713;1309;61227;-80
2022/03/08 06:28:44;;;;;;;;;;;;;;;19.10;31.21;101109.55;103734;1309;61348;-80
2022/03/08 06:31:10;;;;;;;;;;;;;;;19.18;31.13;101111.75;103768;1309;61346;-79
2022/03/08 06:33:35;;;;;;;;;;;;;;;19.25;31.18;101114.40;103804;1308;61260;-80
2022/03/08 06:36:01;;;;;;;;;;;;;;;19.32;31.18;101112.19;103848;1308;61282;-79
2022/03/08 06:38:27;;;;;;;;;;;;;;;19.38;31.10;101111.66;103785;1309;61343;-79
2022/03/08 06:40:56;;;;;;;;;;;;;;;19.43;31.23;101114.95;103952;1306;61393;-80
2022/03/08 06:43:21;;;;;;;;;;;;;;;19.47;31.10;101113.62;103849;1309;75811;-81
2022/03/08 06:45:47;;;;;;;;;;;;;;;19.51;31.19;101114.25;103540;1309;479292;-79
2022/03/08 06:48:12;;;;;;;;;;;;;;;19.55;31.19;101117.80;104023;1308;61328;-80
2022/03/08 06:50:48;;;;;;;;;;;;;;;19.59;31.39;101119.13;103867;1309;73829;-84
2022/03/08 06:53:13;;;;;;;;;;;;;;;19.64;31.31;101116.52;103648;1306;74756;-82
2022/03/08 06:55:39;;;;;;;;;;;;;;;19.58;31.16;101116.39;103782;1309;61265;-80
2022/03/08 06:58:05;;;;;;;;;;;;;;;19.36;31.26;101117.65;103610;1309;61609;-79
2022/03/08 07:00:31;;;;;;;;;;;;;;;19.15;31.31;101122.27;103582;1308;61268;-80
2022/03/08 07:02:57;;;;;;;;;;;;;;;19.04;31.66;101122.90;103376;1309;61432;-80
2022/03/08 07:05:22;;;;;;;;;;;;;;;18.98;31.77;101123.09;103624;1309;61266;-80
2022/03/08 07:07:49;;;;;;;;;;;;;;;19.00;31.79;101124.20;103561;1309;61333;-80
2022/03/08 07:10:14;;;;;;;;;;;;;;;19.06;31.81;101128.29;103382;1308;61332;-83
2022/03/08 07:12:40;;;;;;;;;;;;;;;19.14;31.82;101123.21;103491;1308;61250;-80
2022/03/08 07:15:06;;;;;;;;;;;;;;;19.23;31.90;101120.75;103512;1309;61319;-80
2022/03/08 07:17:32;;;;;;;;;;;;;;;19.32;31.81;101115.96;103625;1311;61315;-80
2022/03/08 07:19:58;;;;;;;;;;;;;;;19.39;31.90;101120.18;104277;1308;62081;-79
2022/03/08 07:22:23;;;;;;;;;;;;;;;19.45;31.88;101114.06;103692;1308;61288;-80
2022/03/08 07:24:49;;;;;;;;;;;;;;;19.52;32.05;101117.59;103705;1308;61412;-80
2022/03/08 07:27:15;;;;;;;;;;;;;;;19.59;32.08;101117.36;103725;1309;61293;-80
2022/03/08 07:29:40;;;;;;;;;;;;;;;19.66;32.16;101121.61;103690;1308;61271;-80
2022/03/08 07:32:18;;;;;;;;;;;;;;;;;;;;;
2022/03/08 07:34:43;;;;;;;;;;;;;;;19.76;32.24;101122.45;103637;1309;72835;-80
2022/03/08 07:37:09;;;;;;;;;;;;;;;19.80;32.34;101123.30;103865;1306;61308;-80
2022/03/08 07:39:38;;;;;;;;;;;;;;;19.83;32.50;101123.98;103932;1308;61298;-83
2022/03/08 07:42:06;;;;;;;;;;;;;;;19.87;32.30;101121.46;103731;1309;61291;-80
2022/03/08 07:44:31;;;;;;;;;;;;;;;19.90;32.43;101118.91;103924;1307;61326;-80
2022/03/08 07:46:59;;;;;;;;;;;;;;;19.94;32.42;101122.12;103750;1309;61504;-80
2022/03/08 07:49:28;;;;;;;;;;;;;;;19.95;32.41;101118.80;103712;1307;61270;-79
2022/03/08 07:51:54;;;;;;;;;;;;;;;19.98;32.43;101115.92;103708;1308;61295;-80
2022/03/08 07:54:20;;;;;;;;;;;;;;;19.99;32.58;101115.70;103575;1306;61400;-80
2022/03/08 07:56:46;;;;;;;;;;;;;;;19.95;32.67;101115.59;103435;1306;61323;-80
2022/03/08 07:59:11;;;;;;;;;;;;;;;19.85;32.73;101113.00;103411;1308;59666;-80
2022/03/08 08:01:39;;;;;;;;;;;;;;;19.74;32.95;101114.89;103427;1308;61388;-79
2022/03/08 08:04:05;;;;;;;;;;;;;;;19.62;32.89;101117.16;103407;1306;61389;-80
2022/03/08 08:06:30;;;;;;;;;;;;;;;19.58;33.01;101114.23;103296;1308;61384;-79
2022/03/08 08:08:57;;;;;;;;;;;;;;;19.59;33.16;101114.54;103420;1307;61306;-78
2022/03/08 08:11:22;;;;;;;;;;;;;;;19.64;33.20;101113.00;103638;1306;63371;-78
2022/03/08 08:13:48;;;;;;;;;;;;;;;19.69;33.35;101111.02;103667;1309;61376;-81
2022/03/08 08:16:14;;;;;;;;;;;;;;;19.74;33.59;101110.05;103673;1307;72620;-80
2022/03/08 08:18:40;;;;;;;;;;;;;;;19.78;33.45;101107.49;103779;1307;61747;-79
2022/03/08 08:21:05;;;;;;;;;;;;;;;19.81;33.35;101104.45;103684;1307;61571;-80
2022/03/08 08:23:32;;;;;;;;;;;;;;;19.84;33.61;101103.58;103683;1307;61317;-80
2022/03/08 08:25:57;;;;;;;;;;;;;;;19.86;33.49;101103.09;103668;1307;61264;-80
2022/03/08 08:28:23;;;;;;;;;;;;;;;19.91;33.33;101102.08;103890;1306;62125;-80
2022/03/08 08:30:48;;;;;;;;;;;;;;;19.94;33.50;101101.39;103884;1309;61298;-81
2022/03/08 08:33:14;;;;;;;;;;;;;;;19.97;33.29;101097.45;103791;1308;61299;-80
2022/03/08 08:35:42;;;;;;;;;;;;;;;19.98;33.21;101097.70;103511;1310;61423;-79
2022/03/08 08:38:07;;;;;;;;;;;;;;;20.00;33.21;101092.41;103480;1308;72734;-80
2022/03/08 08:40:34;;;;;;;;;;;;;;;20.01;33.12;101091.28;103701;1309;61299;-79
2022/03/08 08:43:01;;;;;;;;;;;;;;;20.04;33.29;101092.00;103869;1307;60666;-80
2022/03/08 08:45:27;;;;;;;;;;;;;;;20.05;33.00;101091.00;105144;1306;60889;-79
2022/03/08 08:47:55;;;;;;;;;;;;;;;20.07;32.94;101086.45;104804;1307;61291;-80
2022/03/08 08:50:20;;;;;;;;;;;;;;;20.08;32.98;101081.00;103625;1307;76077;-81
2022/03/08 08:52:46;;;;;;;;;;;;;;;20.11;32.68;101081.40;103324;1309;61412;-79
2022/03/08 08:55:11;;;;;;;;;;;;;;;20.07;32.64;101081.98;103479;1309;61382;-79
2022/03/08 08:57:38;;;;;;;;;;;;;;;19.94;32.61;101085.30;103529;1308;61309;-79
2022/03/08 09:00:05;;;;;;;;;;;;;;;19.77;32.43;101080.91;104903;1309;59884;-82
2022/03/08 09:02:30;;;;;;;;;;;;;;;19.65;32.40;101079.38;103842;1309;61178;-80
2022/03/08 09:04:56;;;;;;;;;;;;;;;19.10;31.97;101080.11;103633;1309;61307;-80
2022/03/08 09:07:25;;;;;;;;;;;;;;;18.77;32.37;101084.44;103540;1309;65026;-81
2022/03/08 09:09:50;;;;;;;;;;;;;;;18.75;32.51;101081.73;103483;1309;73208;-79
2022/03/08 09:12:18;;;;;;;;;;;;;;;18.78;32.65;101081.02;103503;1309;61298;-82
2022/03/08 09:14:44;;;;;;;;;;;;;;;18.85;32.52;101078.66;103653;1306;61282;-80
2022/03/08 09:17:09;;;;;;;;;;;;;;;18.94;32.51;101073.86;103565;1308;61415;-80
2022/03/08 09:19:35;;;;;;;;;;;;;;;19.04;32.51;101071.88;103622;1309;61448;-78
2022/03/08 09:22:02;;;;;;;;;;;;;;;19.13;32.38;101072.45;103662;1308;61328;-80
2022/03/08 09:24:44;;;;;;;;;;;;;;;19.23;32.31;101071.65;103526;1309;61242;-82
2022/03/08 09:27:22;;;;;;;;;;;;;;;19.32;32.33;101075.77;103704;1306;61361;-80
2022/03/08 09:29:48;;;;;;;;;;;;;;;19.38;32.21;101068.80;103620;1309;61419;-79
2022/03/08 09:32:14;;;;;;;;;;;;;;;19.44;32.14;101067.05;103899;1306;61258;-79
2022/03/08 09:34:41;;;;;;;;;;;;;;;19.50;32.16;101066.33;103842;1307;61358;-80
2022/03/08 09:37:07;;;;;;;;;;;;;;;19.56;32.18;101060.78;103849;1308;61122;-78
2022/03/08 09:39:34;;;;;;;;;;;;;;;19.59;32.28;101059.31;103803;1309;61254;-79
2022/03/08 09:42:00;;;;;;;;;;;;;;;19.62;31.98;101062.20;104338;1308;61320;-79
2022/03/08 09:44:25;;;;;;;;;;;;;;;19.64;32.02;101061.56;103742;1309;61305;-79
2022/03/08 09:46:51;;;;;;;;;;;;;;;19.66;31.96;101056.75;103695;1308;61308;-80
2022/03/08 09:49:17;;;;;;;;;;;;;;;19.69;31.94;101060.70;103708;1307;61270;-81
2022/03/08 09:51:43;;;;;;;;;;;;;;;19.65;31.67;101060.59;103413;1307;73623;-80
2022/03/08 09:54:08;;;;;;;;;;;;;;;19.47;31.05;101061.64;103312;1309;63349;-80
2022/03/08 09:56:35;;;;;;;;;;;;;;;19.05;30.37;101060.41;103426;1308;61324;-78
2022/03/08 09:59:00;;;;;;;;;;;;;;;18.78;30.35;101066.59;105066;1308;60340;-79
2022/03/08 10:01:26;;;;;;;;;;;;;;;18.74;30.45;101063.59;105267;1306;59638;-80
2022/03/08 10:03:52;;;;;;;;;;;;;;;18.71;30.76;101065.02;105087;1309;60232;-79
2022/03/08 10:06:17;;;;;;;;;;;;;;;18.77;31.07;101057.36;105160;1309;60591;-79
2022/03/08 10:08:43;;;;;;;;;;;;;;;18.81;31.21;101060.13;105151;1309;62190;-79
2022/03/08 10:11:11;;;;;;;;;;;;;;;18.86;31.27;101051.83;105339;1306;60904;-79
2022/03/08 10:13:41;;;;;;;;;;;;;;;18.95;31.28;101051.35;105252;1306;74097;-79
2022/03/08 10:16:10;;;;;;;;;;;;;;;19.03;31.37;101046.79;105088;1308;75600;-79
2022/03/08 10:18:43;;;;;;;;;;;;;;;19.11;31.34;101043.98;105203;1307;60060;-79
2022/03/08 10:21:25;;;;;;;;;;;;;;;19.20;31.35;101045.46;105382;1307;60183;-81
2022/03/08 10:23:50;;;;;;;;;;;;;;;19.27;31.31;101042.18;103870;1308;72994;-79
2022/03/08 10:26:17;;;;;;;;;;;;;;;19.27;31.31;101043.23;103694;1309;61300;-79
2022/03/08 10:28:43;;;;;;;;;;;;;;;19.25;31.11;101040.13;103758;1310;61311;-81
2022/03/08 10:31:11;;;;;;;;;;;;;;;19.24;31.01;101035.38;103787;1309;61330;-80
2022/03/08 10:33:37;;;;;;;;;;;;;;;19.25;30.99;101031.95;103841;1307;72771;-80
2022/03/08 10:36:03;;;;;;;;;;;;;;;19.28;30.89;101027.83;103725;1308;62034;-79
2022/03/08 10:38:29;;;;;;;;;;;;;;;19.31;31.04;101030.52;103674;1309;61337;-79
2022/03/08 10:40:55;;;;;;;;;;;;;;;19.35;30.90;101025.10;103888;1306;61253;-79
2022/03/08 10:43:27;;;;;;;;;;;;;;;19.39;31.07;101025.90;103742;1309;61304;-79
2022/03/08 10:45:56;;;;;;;;;;;;;;;19.43;30.98;101026.04;103857;1306;76074;-80
2022/03/08 10:48:25;;;;;;;;;;;;;;;19.47;30.99;101019.90;103699;1306;61107;-80
2022/03/08 10:50:50;;;;;;;;;;;;;;;19.52;31.05;101019.08;103718;1308;61271;-80
2022/03/08 10:53:16;;;;;;;;;;;;;;;19.43;30.95;101018.15;103621;1309;61266;-80
2022/03/08 10:55:50;;;;;;;;;;;;;;;19.29;30.95;101014.23;103655;1308;75972;-80
2022/03/08 10:58:21;;;;;;;;;;;;;;;19.18;30.96;101018.80;103594;1309;61278;-80
2022/03/08 11:00:48;;;;;;;;;;;;;;;19.12;31.02;101022.17;103711;1308;61324;-80
2022/03/08 11:03:36;;;;;;;;;;;;;;;18.99;31.07;101022.73;103654;1307;61154;-80
2022/03/08 11:06:16;;;;;;;;;;;;;;;;;;;;;
2022/03/08 11:08:44;;;;;;;;;;;;;;;18.88;30.94;101019.81;103453;1313;61483;-82
2022/03/08 11:11:10;;;;;;;;;;;;;;;18.89;30.85;101018.55;103296;1315;61878;-79
2022/03/08 11:13:39;;;;;;;;;;;;;;;18.93;30.69;101014.73;103360;1315;61400;-82
2022/03/08 11:16:05;;;;;;;;;;;;;;;18.98;30.91;101012.31;103242;1315;75227;-81
2022/03/08 11:18:30;;;;;;;;;;;;;;;19.04;30.81;101013.21;103531;1313;62009;-79
2022/03/08 11:20:58;;;;;;;;;;;;;;;19.07;30.63;101010.36;103480;1313;61420;-79
2022/03/08 11:23:24;;;;;;;;;;;;;;;19.08;30.58;101012.21;103311;1315;61449;-82
2022/03/08 11:25:49;;;;;;;;;;;;;;;19.05;30.59;101006.72;103238;1315;61950;-82
2022/03/08 11:28:18;;;;;;;;;;;;;;;19.03;30.45;101005.23;103517;1313;61384;-80
2022/03/08 11:30:48;;;;;;;;;;;;;;;19.09;30.43;101003.64;103417;1315;61536;-81
2022/03/08 11:33:23;;;;;;;;;;;;;;;19.15;30.53;101000.42;103605;1314;72695;-80
2022/03/08 11:35:48;;;;;;;;;;;;;;;19.20;30.59;100993.16;103563;1314;74817;-80
2022/03/08 11:38:14;;;;;;;;;;;;;;;19.25;30.57;100988.75;103463;1314;60007;-81
2022/03/08 11:40:53;;;;;;;;;;;;;;;19.29;30.54;100989.39;103412;1315;61392;-79
2022/03/08 11:43:19;;;;;;;;;;;;;;;19.34;30.60;100986.08;103778;1307;72819;-80
2022/03/08 11:45:48;;;;;;;;;;;;;;;19.39;30.54;100985.23;103436;1308;62905;-80
2022/03/08 11:48:14;;;;;;;;;;;;;;;19.43;30.34;100988.73;103807;1308;61329;-80
2022/03/08 11:50:40;;;;;;;;;;;;;;;19.40;30.44;100984.45;103615;1307;61748;-82
2022/03/08 11:53:07;;;;;;;;;;;;;;;19.35;30.34;100979.93;103605;1309;61166;-81
2022/03/08 11:55:48;;;;;;;;;;;;;;;19.10;29.80;100979.13;103666;1308;75172;-79
2022/03/08 11:58:18;;;;;;;;;;;;;;;18.70;29.65;100979.14;105227;1306;60373;-80
2022/03/08 12:00:44;;;;;;;;;;;;;;;18.61;29.95;100976.64;105339;1306;60312;-80
2022/03/08 12:03:10;;;;;;;;;;;;;;;18.58;30.15;100978.70;105318;1306;59791;-80
2022/03/08 12:05:43;;;;;;;;;;;;;;;18.60;30.27;100983.08;104301;1306;61383;-80
2022/03/08 12:08:28;;;;;;;;;;;;;;;18.63;30.23;100982.91;103535;1311;61202;-80
2022/03/08 12:10:57;;;;;;;;;;;;;;;18.56;30.11;100982.99;103784;1309;61154;-80
2022/03/08 12:13:25;;;;;;;;;;;;;;;18.53;30.07;100980.48;103886;1308;72949;-79
2022/03/08 12:16:09;;;;;;;;;;;;;;;18.55;30.10;100980.17;103914;1309;61313;-82
2022/03/08 12:18:41;;;;;;;;;;;;;;;18.57;30.17;100979.89;103986;1308;61209;-79
2022/03/08 12:21:18;;;;;;;;;;;;;;;18.61;30.17;100977.86;104266;1307;61616;-80
2022/03/08 12:23:48;;;;;;;;;;;;;;;18.64;30.29;100980.19;104045;1307;72080;-80
2022/03/08 12:26:28;;;;;;;;;;;;;;;18.65;30.19;100981.22;104030;1308;75054;-79
2022/03/08 12:29:21;;;;;;;;;;;;;;;18.65;30.13;100984.93;104079;1308;61156;-79
2022/03/08 12:32:05;;;;;;;;;;;;;;;18.65;30.15;100977.98;104189;1307;61205;-81
2022/03/08 12:34:43;;;;;;;;;;;;;;;18.65;30.16;100978.90;104092;1308;72799;-81
2022/03/08 12:37:20;;;;;;;;;;;;;;;18.66;29.99;100980.63;104335;1306;75853;-82
2022/03/08 12:39:58;;;;;;;;;;;;;;;18.66;30.12;100982.92;103931;1309;60097;-83
2022/03/08 12:42:47;;;;;;;;;;;;;;;18.66;30.05;100982.91;103941;1308;61824;-82
2022/03/08 12:45:14;;;;;;;;;;;;;;;18.67;29.85;100985.94;103504;1314;72754;-80
2022/03/08 12:47:49;;;;;;;;;;;;;;;18.66;29.77;100985.06;103393;1315;75740;-81
2022/03/08 12:50:16;;;;;;;;;;;;;;;18.56;29.71;100983.52;103274;1314;61398;-80
2022/03/08 12:52:44;;;;;;;;;;;;;;;18.39;29.51;100989.12;103266;1313;61461;-81
2022/03/08 12:55:12;;;;;;;;;;;;;;;18.20;29.44;100993.02;103119;1315;72855;-80
2022/03/08 12:57:46;;;;;;;;;;;;;;;18.18;29.55;100992.60;103112;1315;76087;-79
2022/03/08 13:00:23;;;;;;;;;;;;;;;18.21;29.59;100992.23;103252;1315;61459;-80
2022/03/08 13:02:48;;;;;;;;;;;;;;;18.27;29.63;100993.34;103325;1315;61444;-79
2022/03/08 13:05:17;;;;;;;;;;;;;;;18.31;29.54;100993.13;103407;1315;61630;-82
2022/03/08 13:07:54;;;;;;;;;;;;;;;18.35;29.47;100988.41;103562;1315;75824;-80
2022/03/08 13:10:23;;;;;;;;;;;;;;;18.40;29.45;100987.80;103834;1314;61286;-80
2022/03/08 13:12:51;;;;;;;;;;;;;;;18.45;29.38;100988.61;103678;1313;61294;-79
2022/03/08 13:15:31;;;;;;;;;;;;;;;18.48;29.28;100988.07;103597;1315;73833;-79
2022/03/08 13:18:16;;;;;;;;;;;;;;;18.52;29.24;100989.95;103832;1313;74824;-80
2022/03/08 13:21:02;;;;;;;;;;;;;;;18.55;29.10;100985.14;103657;1313;61362;-80
2022/03/08 13:23:28;;;;;;;;;;;;;;;18.58;29.08;100985.15;104079;1309;61277;-80